| time (UTC) | temp C | wind direction | speed KPH | gust KPH | rain 1hr cm | rain 24hr cm | rain mn cm | humidity % | barometer mb |
| 20260505004314 | -17 | 68 | 3.2 | 11.3 | 0.00 | 0.00 | 0.00 | 1007.2 | |
| 20260505003812 | -17 | 89 | 1.6 | 4.8 | 0.00 | 0.00 | 0.00 | 1007.2 | |
| 20260505003309 | -17 | 1 | 4.8 | 9.7 | 0.00 | 0.00 | 0.00 | 1007.2 | |
| 20260505002805 | -17 | 94 | 4.8 | 12.9 | 0.00 | 0.00 | 0.00 | 1007.1 | |
| 20260505002304 | -17 | 353 | 3.2 | 12.9 | 0.00 | 0.00 | 0.00 | 1007.1 | |
| 20260505001801 | -17 | 101 | 4.8 | 9.7 | 0.00 | 0.00 | 0.00 | 1007.2 | |
| 20260505001257 | -17 | 68 | 3.2 | 3.2 | 0.00 | 0.00 | 0.00 | 1007.2 | |
| 20260505000754 | -17 | 84 | 3.2 | 8.0 | 0.00 | 0.00 | 0.00 | 1007.1 | |
| 20260505000252 | -17 | 43 | 4.8 | 8.0 | 0.00 | 0.00 | 0.00 | 1007.1 | |
| 20260504235749 | -17 | 50 | 4.8 | 4.8 | 0.00 | 0.00 | 0.00 | 1007.0 | |
| 20260504235245 | -17 | 76 | 6.4 | 9.7 | 0.00 | 0.00 | 0.00 | 1007.2 | |
| 20260504234742 | -17 | 302 | 6.4 | 12.9 | 0.00 | 0.00 | 0.00 | 1007.3 | |
| 20260504234239 | -17 | 107 | 1.6 | 3.2 | 0.00 | 0.00 | 0.00 | 1007.4 | |
| 20260504233736 | -17 | 92 | 3.2 | 4.8 | 0.00 | 0.00 | 0.00 | 1007.3 | |
| 20260504233231 | -17 | 86 | 3.2 | 11.3 | 0.00 | 0.00 | 0.00 | 1007.6 | |
| 20260504232729 | -17 | 89 | 1.6 | 8.0 | 0.00 | 0.00 | 0.00 | 1007.3 | |
| 20260504232226 | -17 | 81 | 3.2 | 8.0 | 0.00 | 0.00 | 0.00 | 1007.3 | |
| 20260504231722 | -17 | 99 | 3.2 | 11.3 | 0.00 | 0.00 | 0.00 | 1007.4 | |
| 20260504231219 | -17 | 87 | 4.8 | 8.0 | 0.00 | 0.00 | 0.00 | 1007.5 | |
| 20260504230715 | -17 | 3 | 1.6 | 8.0 | 0.00 | 0.00 | 0.00 | 1007.4 | |
| 20260504230214 | -17 | 323 | 4.8 | 9.7 | 0.00 | 0.00 | 0.00 | 1007.6 | |
| 20260504225712 | -17 | 70 | 3.2 | 8.0 | 0.00 | 0.00 | 0.00 | 1007.4 | |
| 20260504225208 | -17 | 41 | 3.2 | 4.8 | 0.00 | 0.00 | 0.00 | 1007.5 | |
| 20260504224705 | -17 | 78 | 3.2 | 11.3 | 0.00 | 0.00 | 0.00 | 1007.6 | |
| 20260504224203 | -17 | 355 | 1.6 | 8.0 | 0.00 | 0.00 | 0.00 | 1007.5 | |
| 20260504223659 | -17 | 79 | 3.2 | 4.8 | 0.00 | 0.00 | 0.00 | 1007.7 | |
| 20260504223154 | -17 | 327 | 4.8 | 8.0 | 0.00 | 0.00 | 0.00 | 1007.8 | |
| 20260504222652 | -17 | 6 | 4.8 | 11.3 | 0.00 | 0.00 | 0.00 | 1007.7 | |
| 20260504222148 | -17 | 260 | 4.8 | 8.0 | 0.00 | 0.00 | 0.00 | 1007.8 | |
| 20260504221646 | -17 | 50 | 1.6 | 4.8 | 0.00 | 0.00 | 0.00 | 1007.6 | |
| 20260504221143 | -17 | 37 | 6.4 | 8.0 | 0.00 | 0.00 | 0.00 | 1007.8 | |
| 20260504220639 | -17 | 347 | 9.7 | 11.3 | 0.00 | 0.00 | 0.00 | 1008.0 | |
| 20260504220137 | -17 | 88 | 3.2 | 12.9 | 0.00 | 0.00 | 0.00 | 1008.0 | |
| 20260504215633 | -17 | 328 | 8.0 | 11.3 | 0.00 | 0.00 | 0.00 | 1008.0 | |
| 20260504215130 | -17 | 325 | 4.8 | 11.3 | 0.00 | 0.00 | 0.00 | 1007.9 | |
| 20260504214626 | -17 | 35 | 8.0 | 11.3 | 0.00 | 0.00 | 0.00 | 1008.0 | |
| 20260504214123 | -17 | 270 | 8.0 | 11.3 | 0.00 | 0.00 | 0.00 | 1008.2 | |
| 20260504213619 | -17 | 334 | 9.7 | 16.1 | 0.00 | 0.00 | 0.00 | 1008.1 | |
| 20260504213116 | -17 | 39 | 4.8 | 9.7 | 0.00 | 0.00 | 0.00 | 1008.2 | |
| 20260504212612 | -17 | 334 | 11.3 | 14.5 | 0.00 | 0.00 | 0.00 | 1008.3 | |
| 20260504212109 | -17 | 12 | 6.4 | 11.3 | 0.00 | 0.00 | 0.00 | 1008.2 | |
| 20260504211607 | -17 | 125 | 6.4 | 9.7 | 0.00 | 0.00 | 0.00 | 1008.2 | |
| 20260504211103 | -17 | 203 | 8.0 | 12.9 | 0.00 | 0.00 | 0.00 | 1008.3 | |
| 20260504210601 | -17 | 254 | 6.4 | 9.7 | 0.00 | 0.00 | 0.00 | 1008.2 | |
| 20260504210057 | -17 | 27 | 4.8 | 4.8 | 0.00 | 0.00 | 0.00 | 1008.1 | |
| 20260504205555 | -17 | 75 | 1.6 | 9.7 | 0.00 | 0.00 | 0.00 | 1008.3 | |
| 20260504205052 | -17 | 24 | 6.4 | 9.7 | 0.00 | 0.00 | 0.00 | 1008.2 | |
| 20260504204550 | -17 | 96 | 1.6 | 3.2 | 0.00 | 0.00 | 0.00 | 1008.1 | |
| 20260504204049 | -17 | 334 | 4.8 | 9.7 | 0.00 | 0.00 | 0.00 | 1008.2 | |
| 20260504203547 | -17 | 328 | 4.8 | 8.0 | 0.00 | 0.00 | 0.00 | 1008.3 | |
| 20260504203044 | -17 | 95 | 1.6 | 4.8 | 0.00 | 0.00 | 0.00 | 1008.4 | |
| 20260504202539 | -17 | 351 | 3.2 | 4.8 | 0.00 | 0.00 | 0.00 | 1008.5 | |
| 20260504202037 | -17 | 89 | 1.6 | 4.8 | 0.00 | 0.00 | 0.00 | 1008.3 | |
| 20260504201533 | -17 | 89 | 1.6 | 4.8 | 0.00 | 0.00 | 0.00 | 1008.3 | |
| 20260504201032 | -17 | 95 | 0.0 | 8.0 | 0.00 | 0.00 | 0.00 | 1008.4 | |
| 20260504200527 | -17 | 91 | 3.2 | 9.7 | 0.00 | 0.00 | 0.00 | 1008.5 | |
| 20260504200024 | -17 | 71 | 4.8 | 8.0 | 0.00 | 0.00 | 0.00 | 1008.5 | |
| 20260504195520 | -17 | 353 | 8.0 | 11.3 | 0.00 | 0.00 | 0.00 | 1008.8 | |
| 20260504195017 | -17 | 76 | 4.8 | 4.8 | 0.00 | 0.00 | 0.00 | 1008.7 | |
| 20260504194514 | -17 | 100 | 3.2 | 3.2 | 0.00 | 0.00 | 0.00 | 1008.6 | |
| 20260504194009 | -17 | 335 | 4.8 | 8.0 | 0.00 | 0.00 | 0.00 | 1008.6 | |
| 20260504193506 | -17 | 86 | 4.8 | 12.9 | 0.00 | 0.00 | 0.00 | 1008.6 | |
| 20260504193005 | -17 | 72 | 4.8 | 9.7 | 0.00 | 0.00 | 0.00 | 1008.6 | |
| 20260504192502 | -17 | 77 | 1.6 | 4.8 | 0.00 | 0.00 | 0.00 | 1008.5 | |
| 20260504192001 | -17 | 15 | 6.4 | 11.3 | 0.00 | 0.00 | 0.00 | 1008.6 | |
| 20260504191458 | -17 | 284 | 6.4 | 9.7 | 0.00 | 0.00 | 0.00 | 1008.5 | |
| 20260504190954 | -17 | 106 | 4.8 | 9.7 | 0.00 | 0.00 | 0.00 | 1008.7 | |
| 20260504190449 | -17 | 25 | 6.4 | 11.3 | 0.00 | 0.00 | 0.00 | 1008.9 | |
| 20260504185946 | -17 | 294 | 4.8 | 8.0 | 0.00 | 0.00 | 0.00 | 1008.5 | |
| 20260504185443 | -17 | 339 | 6.4 | 11.3 | 0.00 | 0.00 | 0.00 | 1008.8 | |
| 20260504184939 | -17 | 51 | 3.2 | 11.3 | 0.00 | 0.00 | 0.00 | 1008.7 | |
| 20260504184435 | -17 | 292 | 6.4 | 9.7 | 0.00 | 0.00 | 0.00 | 1009.0 | |
| 20260504183931 | -17 | 212 | 3.2 | 9.7 | 0.00 | 0.00 | 0.00 | 1008.9 | |
| 20260504183429 | -17 | 39 | 3.2 | 9.7 | 0.00 | 0.00 | 0.00 | 1008.8 | |
| 20260504182927 | -17 | 324 | 6.4 | 9.7 | 0.00 | 0.00 | 0.00 | 1008.9 | |
| 20260504182423 | -17 | 318 | 8.0 | 11.3 | 0.00 | 0.00 | 0.00 | 1008.9 | |
| 20260504181920 | -17 | 316 | 8.0 | 11.3 | 0.00 | 0.00 | 0.00 | 1008.4 | |
| 20260504181418 | -17 | 42 | 4.8 | 11.3 | 0.00 | 0.00 | 0.00 | 1008.8 | |
| 20260504180916 | -17 | 55 | 4.8 | 9.7 | 0.00 | 0.00 | 0.00 | 1008.8 | |
| 20260504180415 | -17 | 75 | 1.6 | 8.0 | 0.00 | 0.00 | 0.00 | 1008.8 | |
| 20260504175912 | -17 | 7 | 4.8 | 9.7 | 0.00 | 0.00 | 0.00 | 1008.5 | |
| 20260504175409 | -17 | 133 | 6.4 | 8.0 | 0.00 | 0.00 | 0.00 | 1008.5 | |
| 20260504174907 | -17 | 9 | 6.4 | 8.0 | 0.00 | 0.00 | 0.00 | 1008.8 | |
| 20260504174404 | -17 | 74 | 3.2 | 4.8 | 0.00 | 0.00 | 0.00 | 1008.4 | |
| 20260504173901 | -17 | 59 | 1.6 | 3.2 | 0.00 | 0.00 | 0.00 | 1008.6 | |
| 20260504173357 | -17 | 84 | 3.2 | 8.0 | 0.00 | 0.00 | 0.00 | 1008.5 | |
| 20260504172855 | -17 | 66 | 4.8 | 9.7 | 0.00 | 0.00 | 0.00 | 1008.6 | |
| 20260504172351 | -17 | 32 | 4.8 | 4.8 | 0.00 | 0.00 | 0.00 | 1008.5 | |
| 20260504171847 | -17 | 45 | 3.2 | 8.0 | 0.00 | 0.00 | 0.00 | 1008.2 | |
| 20260504171345 | -17 | 26 | 4.8 | 8.0 | 0.00 | 0.00 | 0.00 | 1008.5 | |
| 20260504170842 | -17 | 229 | 4.8 | 4.8 | 0.00 | 0.00 | 0.00 | 1008.4 | |
| 20260504170338 | -17 | 0.0 | 0.0 | 0.00 | 0.00 | 0.00 | 1008.6 | ||
| 20260504160257 | -17 | 0.0 | 0.0 | 0.00 | 0.00 | 0.00 | 1008.6 | ||
| 20260504150722 | -17 | 0.0 | 0.0 | 0.00 | 0.00 | 0.00 | 1008.4 | ||
| 20260504150219 | -17 | 0.0 | 0.0 | 0.00 | 0.00 | 0.00 | 1008.4 | ||
| 20260504141148 | -17 | 0.0 | 0.0 | 0.00 | 0.00 | 0.00 | 1008.3 | ||
| 20260504140645 | -17 | 0.0 | 0.0 | 0.00 | 0.00 | 0.00 | 1008.1 | ||
| 20260504140140 | -17 | 0.0 | 0.0 | 0.00 | 0.00 | 0.00 | 1008.2 | ||
| 20260504130609 | -17 | 0.0 | 0.0 | 0.00 | 0.00 | 0.00 | 1007.7 | ||
| 20260504130106 | -17 | 0.0 | 0.0 | 0.00 | 0.00 | 0.00 | 1007.7 | ||
| 20260504110456 | -17 | 0.0 | 0.0 | 0.00 | 0.00 | 0.00 | 1007.7 | ||
| 20260504100419 | -17 | 0.0 | 0.0 | 0.00 | 0.00 | 0.00 | 1007.6 | ||
| 20260504081812 | -17 | 0.0 | 0.0 | 0.00 | 0.00 | 0.00 | 1007.7 | ||
| 20260504081309 | -17 | 0.0 | 0.0 | 0.00 | 0.00 | 0.00 | 1007.9 | ||
| 20260504080805 | -17 | 0.0 | 0.0 | 0.00 | 0.00 | 0.00 | 1007.8 | ||
| 20260504080301 | -17 | 0.0 | 0.0 | 0.00 | 0.00 | 0.00 | 1007.7 | ||
| 20260504070229 | -17 | 0.0 | 0.0 | 0.00 | 0.00 | 0.00 | 1007.6 | ||
| 20260504060150 | -17 | 0.0 | 0.0 | 0.00 | 0.00 | 0.00 | 1007.9 | ||
| 20260504050618 | -17 | 0.0 | 0.0 | 0.00 | 0.00 | 0.00 | 1007.9 | ||
| 20260504050115 | -17 | 0.0 | 0.0 | 0.00 | 0.00 | 0.00 | 1008.0 | ||
| 20260504045612 | -17 | 0.0 | 0.0 | 0.00 | 0.00 | 0.00 | 1007.8 | ||
| 20260504045107 | -17 | 0.0 | 0.0 | 0.00 | 0.00 | 0.00 | 1008.1 | ||
| 20260504044605 | -17 | 0.0 | 0.0 | 0.00 | 0.00 | 0.00 | 1008.0 | ||
| 20260504044101 | -17 | 0.0 | 0.0 | 0.00 | 0.00 | 0.00 | 1007.8 | ||
| 20260504043559 | -17 | 0.0 | 0.0 | 0.00 | 0.00 | 0.00 | 1007.8 | ||
| 20260504043055 | -17 | 0.0 | 0.0 | 0.00 | 0.00 | 0.00 | 1007.7 | ||
| 20260504042552 | -17 | 0.0 | 0.0 | 0.00 | 0.00 | 0.00 | 1007.8 | ||
| 20260504042049 | -17 | 0.0 | 0.0 | 0.00 | 0.00 | 0.00 | 1007.7 | ||
| 20260504041545 | -17 | 0.0 | 0.0 | 0.00 | 0.00 | 0.00 | 1007.6 | ||
| 20260504041041 | -17 | 0.0 | 0.0 | 0.00 | 0.00 | 0.00 | 1008.0 | ||
| 20260504040539 | -17 | 0.0 | 0.0 | 0.00 | 0.00 | 0.00 | 1007.8 | ||
| 20260504040036 | -17 | 202 | 0.0 | 0.0 | 0.00 | 0.00 | 0.00 | 1007.7 | |
| 20260504035532 | -17 | 202 | 0.0 | 0.0 | 0.00 | 0.00 | 0.00 | 1007.5 | |
| 20260504035029 | -17 | 202 | 0.0 | 0.0 | 0.00 | 0.00 | 0.00 | 1007.7 | |
| 20260504034527 | -17 | 202 | 0.0 | 0.0 | 0.00 | 0.00 | 0.00 | 1007.4 | |
| 20260504034023 | -17 | 202 | 0.0 | 0.0 | 0.00 | 0.00 | 0.00 | 1007.5 | |
| 20260504033521 | -17 | 202 | 0.0 | 0.0 | 0.00 | 0.00 | 0.00 | 1007.5 | |
| 20260504033018 | -17 | 202 | 0.0 | 0.0 | 0.00 | 0.00 | 0.00 | 1007.7 | |
| 20260504032515 | -17 | 202 | 0.0 | 0.0 | 0.00 | 0.00 | 0.00 | 1007.5 | |
| 20260504032012 | -17 | 202 | 0.0 | 0.0 | 0.00 | 0.00 | 0.00 | 1007.5 | |
| 20260504031509 | -17 | 202 | 0.0 | 0.0 | 0.00 | 0.00 | 0.00 | 1007.6 | |
| 20260504031005 | -17 | 202 | 0.0 | 0.0 | 0.00 | 0.00 | 0.00 | 1007.6 | |
| 20260504030503 | -17 | 202 | 0.0 | 1.6 | 0.00 | 0.00 | 0.00 | 1007.6 | |
| 20260504025958 | -17 | 184 | 1.6 | 3.2 | 0.00 | 0.00 | 0.00 | 1007.7 | |
| 20260504025456 | -17 | 106 | 3.2 | 8.0 | 0.00 | 0.00 | 0.00 | 1007.9 | |
| 20260504024952 | -17 | 100 | 1.6 | 3.2 | 0.00 | 0.00 | 0.00 | 1007.9 | |
| 20260504024449 | -17 | 105 | 0.0 | 3.2 | 0.00 | 0.00 | 0.00 | 1007.8 | |
| 20260504023946 | -17 | 100 | 0.0 | 3.2 | 0.00 | 0.00 | 0.00 | 1007.9 | |
| 20260504023443 | -17 | 80 | 1.6 | 9.7 | 0.00 | 0.00 | 0.00 | 1008.0 | |
| 20260504022938 | -17 | 98 | 4.8 | 8.0 | 0.00 | 0.00 | 0.00 | 1007.9 | |
| 20260504022435 | -17 | 117 | 3.2 | 8.0 | 0.00 | 0.00 | 0.00 | 1007.7 | |
| 20260504021932 | -17 | 94 | 1.6 | 3.2 | 0.00 | 0.00 | 0.00 | 1007.7 | |
| 20260504021429 | -17 | 82 | 3.2 | 9.7 | 0.00 | 0.00 | 0.00 | 1007.8 | |
| 20260504020926 | -17 | 107 | 0.0 | 1.6 | 0.00 | 0.00 | 0.00 | 1007.9 | |
| 20260504020423 | -17 | 96 | 1.6 | 4.8 | 0.00 | 0.00 | 0.00 | 1007.9 | |
| 20260504015920 | -17 | 64 | 4.8 | 8.0 | 0.00 | 0.00 | 0.00 | 1008.0 | |
| 20260504015415 | -17 | 95 | 1.6 | 9.7 | 0.00 | 0.00 | 0.00 | 1008.2 | |
| 20260504014912 | -17 | 73 | 3.2 | 4.8 | 0.00 | 0.00 | 0.00 | 1007.9 | |
| 20260504014408 | -17 | 92 | 1.6 | 3.2 | 0.00 | 0.00 | 0.00 | 1008.1 | |
| 20260504013905 | -17 | 89 | 6.4 | 8.0 | 0.00 | 0.00 | 0.00 | 1008.1 | |
| 20260504013403 | -17 | 85 | 4.8 | 9.7 | 0.00 | 0.00 | 0.00 | 1008.2 | |
| 20260504012859 | -17 | 85 | 1.6 | 8.0 | 0.00 | 0.00 | 0.00 | 1008.3 | |
| 20260504012357 | -17 | 74 | 4.8 | 8.0 | 0.00 | 0.00 | 0.00 | 1008.2 | |
| 20260504011854 | -17 | 99 | 3.2 | 4.8 | 0.00 | 0.00 | 0.00 | 1008.3 | |
| 20260504011351 | -17 | 94 | 4.8 | 9.7 | 0.00 | 0.00 | 0.00 | 1008.3 | |
| 20260504010847 | -17 | 94 | 4.8 | 8.0 | 0.00 | 0.00 | 0.00 | 1008.2 | |
| 20260504010342 | -17 | 50 | 4.8 | 8.0 | 0.00 | 0.00 | 0.00 | 1008.2 | |
| 20260504005839 | -17 | 118 | 4.8 | 11.3 | 0.00 | 0.00 | 0.00 | 1008.3 | |
| 20260504005336 | -17 | 94 | 0.0 | 8.0 | 0.00 | 0.00 | 0.00 | 1008.5 | |
| 20260504004834 | -17 | 130 | 4.8 | 9.7 | 0.00 | 0.00 | 0.00 | 1008.5 |